• vieta
  • image
  • image
  • image
mod_vvisit_countermod_vvisit_countermod_vvisit_countermod_vvisit_countermod_vvisit_countermod_vvisit_counter
mod_vvisit_counterŠiandien211
mod_vvisit_counterVakar414
mod_vvisit_counterŠią savaitę2534
mod_vvisit_counterPraėjusią savaitę3701
mod_vvisit_counterŠį mėnesį13781
mod_vvisit_counterPraėjusį mėnesį19965
mod_vvisit_counterViso907595

Mes turime: 50 svečius online
Jūsų IP: 54.80.68.137
 , 
Šiandien: Geg 25, 2018
Oro uostas / Naujienos / 2014 Balandis

2014 Balandis


Šiaulių oro uosto atstovai dalyvavo 2014 m. balandžio 7-8 d. Stokholme vykusiame Šiaurės Europos logistų simpoziume, skirtame Šiaurės Europos krovinių gabenimo oro transportu rinkai.  Renginyje susibūrė krovinių operatoriai, ekspeditoriai, siuntėjai, oro linijų bendrovės, oro uostų atstovai, investuotojai, tiekėjai ir kt. Ryšium su esama neužtikrinta situacija oro transportu gabenamų krovinių pramonėje, renginyje buvo akcentuojama tai, jog reikia įvertinti rinkos tendencijas bei pagerinti bendradarbiavimą tarp siuntėjų, ekspeditorių ir vežėjų.


http://www.euroavia.com/nordic/gallery_2014/nordic_gallery_2014.html


APR2014 sw1APR2014 sw2

Šiandien

Penktadienis, 25 Gegužė 2018

Orų prognozė aviacijai

[source: ADDS]
METAR
EYSA 250650Z 04008KT 010V070 CAVOK 18/13 Q1026 BLU NOSIG =
TAF
SR / SS: 02:03 / 18:45 UTC (EYSA 2018-05-25)

Paieška

Lankytojai

Mes turime 50 svečius online

tic logo lt